Airports

 

 

Airport Name Latest METAR Visual Conditions
Atlantic City Int. (ACY) KACY 021654Z 26007KT 10SM OVC090 23/12 A3002 RMK AO2 SLP166 T02280117 VFR
Baltimore International Airport (BWI) KBWI 021654Z 34004KT 10SM SCT065 BKN085 BKN100 OVC150 21/07 A3005 RMK AO2 SLP176 T02110067 VFR
Washington National Airport (DCA) KDCA 021752Z 17009KT 10SM FEW085 BKN100 OVC230 22/10 A3002 RMK AO2 SLP166 60000 T02220100 10228 20161 58027 VFR
Dulles International Airport (IAD) KIAD 021752Z 17006KT 10SM OVC085 23/07 A3001 RMK AO2 SLP162 60000 T02280067 10233 20133 58026 VFR
Norfolk International Airport (ORF) KORF 021751Z 24012G19KT 10SM BKN090 25/16 A3004 RMK AO2 SLP173 T02500156 10261 20189 58030 VFR
Raleigh International Airport (RDU) KRDU 021751Z 23014KT 10SM FEW042 FEW110 SCT250 28/17 A3010 RMK AO2 SLP189 T02780172 10278 20178 58028 VFR
Richmond International Airport (RIC) KRIC 021654Z 22006KT 10SM FEW070 BKN090 BKN120 22/14 A3007 RMK AO2 SLP187 T02220139 VFR
Roanoke Regional Airport (ROA) KROA 021654Z 33004KT 10SM CLR 29/12 A3009 RMK AO2 SLP177 T02940122 VFR